Springfield, Michigan
Current Conditions -  °F | °C
As of 9:53 AM on Thursday 30 Oct 2014 (Local Time) from KBTL Reporting Station
Overcast Overcast  
Wind Chill: 41°   Ceiling: 4000
Heat Index: 44°   Visibility: 10mi
Dew Point: 37°   Wind: 6mph
Humidity: 76%   Direction: 200°SSW
Pressure: 30.14"   Gusts: NA
Location:  42.2966°N, 85.2371°W
Report Text: KBTL 301353Z 20005KT 10SM OVC040 07/03 A3014 RMK AO2 SLP210 T00670028
Loading
Personal Weather Stations






























Interactive Weather Map
Tropical Storm Tracking
New forecast layout! Learn more

10-Day Weather Forecast

Advertisements
Track Severe Weather on mobile